createdAt,value
2023-04-16T03:59:10.236Z,20.98
2023-04-16T04:00:10.088Z,20.91
2023-04-16T04:01:10.055Z,21.00
2023-04-16T04:02:10.077Z,20.98
2023-04-16T04:03:10.260Z,20.98
2023-04-16T04:04:10.180Z,20.96
2023-04-16T04:05:10.149Z,20.96
2023-04-16T04:06:09.994Z,20.96
2023-04-16T04:07:10.006Z,21.08
2023-04-16T04:08:10.024Z,21.00
2023-04-16T04:09:10.188Z,21.06
2023-04-16T04:10:10.009Z,21.03
2023-04-16T04:11:09.980Z,21.06
2023-04-16T04:12:09.969Z,21.04
2023-04-16T04:13:09.963Z,21.04
2023-04-16T04:14:09.984Z,21.03
2023-04-16T04:15:10.013Z,21.00
2023-04-16T04:16:10.009Z,21.06
2023-04-16T04:17:09.970Z,21.00
2023-04-16T04:18:09.957Z,21.11
2023-04-16T04:19:10.139Z,21.08
2023-04-16T04:20:10.013Z,21.12
2023-04-16T04:21:09.945Z,21.15
2023-04-16T04:22:09.922Z,21.18
2023-04-16T04:23:09.922Z,21.19
2023-04-16T04:24:09.940Z,21.22
2023-04-16T04:25:09.931Z,21.21
2023-04-16T04:26:09.943Z,21.28
2023-04-16T04:27:09.900Z,21.25
2023-04-16T04:28:09.937Z,21.22
2023-04-16T04:29:10.148Z,21.21
2023-04-16T04:30:09.933Z,21.34
2023-04-16T04:31:09.919Z,21.27
2023-04-16T04:32:09.908Z,21.25
2023-04-16T04:33:09.897Z,21.31
2023-04-16T04:34:09.894Z,21.33
2023-04-16T04:35:09.912Z,21.34
2023-04-16T04:36:09.876Z,21.31
2023-04-16T04:37:09.945Z,21.36
2023-04-16T04:38:09.868Z,21.31
2023-04-16T04:39:10.079Z,21.40
2023-04-16T04:40:09.866Z,21.34
2023-04-16T04:41:09.851Z,21.37
2023-04-16T04:42:09.840Z,21.37
2023-04-16T04:43:09.868Z,21.37
2023-04-16T04:44:09.860Z,21.43
2023-04-16T04:45:09.858Z,21.48
2023-04-16T04:46:09.894Z,21.46
2023-04-16T04:47:09.858Z,21.48
2023-04-16T04:48:09.855Z,21.49
2023-04-16T04:49:10.069Z,21.46
2023-04-16T04:50:09.841Z,21.49
2023-04-16T04:51:09.806Z,21.51
2023-04-16T04:52:09.813Z,21.52
2023-04-16T04:53:09.832Z,21.56
2023-04-16T04:54:09.810Z,21.56
2023-04-16T04:55:09.822Z,21.55
2023-04-16T04:56:12.637Z,21.53
2023-04-16T04:57:09.811Z,21.59
2023-04-16T04:58:09.824Z,21.53
2023-04-16T04:59:09.999Z,21.52
2023-04-16T05:00:09.800Z,21.53
2023-04-16T05:01:09.860Z,21.58
2023-04-16T05:02:09.786Z,21.59
2023-04-16T05:03:10.014Z,21.52
2023-04-16T05:04:09.781Z,21.59
2023-04-16T05:05:09.844Z,21.64
2023-04-16T05:06:09.796Z,21.61
2023-04-16T05:07:09.771Z,21.62
2023-04-16T05:08:09.817Z,21.62
2023-04-16T05:09:09.914Z,21.62
2023-04-16T05:10:09.751Z,21.66
2023-04-16T05:11:09.739Z,21.62
2023-04-16T05:12:09.748Z,21.62
2023-04-16T05:13:09.732Z,21.64
2023-04-16T05:14:09.746Z,21.68
2023-04-16T05:15:09.739Z,21.68
2023-04-16T05:16:09.774Z,21.67
2023-04-16T05:17:09.749Z,21.70
2023-04-16T05:18:09.722Z,21.77
2023-04-16T05:19:09.967Z,21.70
2023-04-16T05:20:09.710Z,21.78
2023-04-16T05:21:09.702Z,21.73
2023-04-16T05:22:09.725Z,21.73
2023-04-16T05:23:09.705Z,21.73
2023-04-16T05:24:09.718Z,21.78
2023-04-16T05:25:09.696Z,21.68
2023-04-16T05:26:09.689Z,21.74
2023-04-16T05:27:09.758Z,21.71
2023-04-16T05:28:09.685Z,21.71
2023-04-16T05:29:09.879Z,21.76
2023-04-16T05:30:09.678Z,21.73
2023-04-16T05:31:09.739Z,21.71
2023-04-16T05:32:09.673Z,21.78
2023-04-16T05:33:09.668Z,21.78
2023-04-16T05:34:09.669Z,21.78
2023-04-16T05:35:09.675Z,21.82
2023-04-16T05:36:09.663Z,21.82
2023-04-16T05:37:09.657Z,21.71
2023-04-16T05:38:09.639Z,21.89
2023-04-16T05:39:09.795Z,21.80
2023-04-16T05:40:09.636Z,21.80
2023-04-16T05:41:09.639Z,21.80
2023-04-16T05:42:09.645Z,21.78
2023-04-16T05:43:09.632Z,21.80
2023-04-16T05:44:09.628Z,21.82
2023-04-16T05:45:09.627Z,21.78
2023-04-16T05:46:09.688Z,21.80
2023-04-16T05:47:09.618Z,21.89
2023-04-16T05:48:09.625Z,21.85
2023-04-16T05:49:09.822Z,21.86
2023-04-16T05:50:09.597Z,21.86
2023-04-16T05:51:09.605Z,21.74
2023-04-16T05:52:09.621Z,21.82
2023-04-16T05:53:09.599Z,21.80
2023-04-16T05:54:09.583Z,21.92
2023-04-16T05:55:09.585Z,21.83
2023-04-16T05:56:09.619Z,21.93
2023-04-16T05:57:09.599Z,21.82
2023-04-16T05:58:09.601Z,21.93
2023-04-16T05:59:09.784Z,21.90
2023-04-16T06:00:09.588Z,21.86
2023-04-16T06:01:09.566Z,21.90
2023-04-16T06:02:09.735Z,21.90
2023-04-16T06:03:09.706Z,21.92
2023-04-16T06:04:09.664Z,21.86
2023-04-16T06:05:09.580Z,21.94
2023-04-16T06:06:09.540Z,21.97
2023-04-16T06:07:09.577Z,21.99
2023-04-16T06:08:09.556Z,21.96
2023-04-16T06:09:09.735Z,21.92
2023-04-16T06:10:09.527Z,21.96
2023-04-16T06:11:09.548Z,21.94
2023-04-16T06:12:09.572Z,21.93
2023-04-16T06:13:09.547Z,22.05
2023-04-16T06:14:09.522Z,21.97
2023-04-16T06:15:09.519Z,22.07
2023-04-16T06:16:09.593Z,22.04
2023-04-16T06:17:09.615Z,22.08
2023-04-16T06:18:09.579Z,22.05
2023-04-16T06:19:09.681Z,22.05
2023-04-16T06:20:09.540Z,22.11
2023-04-16T06:21:09.510Z,22.09
2023-04-16T06:22:09.516Z,22.07
2023-04-16T06:23:09.546Z,22.11
2023-04-16T06:24:09.494Z,22.11
2023-04-16T06:25:09.555Z,22.09
2023-04-16T06:26:09.479Z,22.11
2023-04-16T06:27:09.554Z,22.11
2023-04-16T06:28:09.495Z,22.07
2023-04-16T06:29:09.737Z,22.11
2023-04-16T06:30:09.464Z,22.14
2023-04-16T06:31:09.488Z,22.20
2023-04-16T06:32:09.524Z,22.23
2023-04-16T06:33:09.471Z,22.24
2023-04-16T06:34:09.456Z,22.12
2023-04-16T06:35:09.465Z,22.09
2023-04-16T06:36:09.455Z,22.07
2023-04-16T06:37:10.697Z,22.23
2023-04-16T06:38:09.449Z,22.22
2023-04-16T06:39:09.936Z,22.29
2023-04-16T06:40:09.485Z,22.27
2023-04-16T06:41:09.437Z,22.23
2023-04-16T06:42:09.445Z,22.33
2023-04-16T06:43:09.444Z,22.29
2023-04-16T06:44:09.411Z,22.23
2023-04-16T06:45:09.411Z,22.29
2023-04-16T06:46:09.414Z,22.22
2023-04-16T06:47:09.557Z,22.23
2023-04-16T06:48:09.445Z,22.23
2023-04-16T06:49:09.726Z,22.33
2023-04-16T06:50:09.416Z,22.34
2023-04-16T06:51:09.398Z,22.34
2023-04-16T06:52:09.412Z,22.36
2023-04-16T06:53:09.415Z,22.38
2023-04-16T06:54:09.380Z,22.34
2023-04-16T06:55:09.411Z,22.39
2023-04-16T06:56:09.396Z,22.41
2023-04-16T06:57:09.374Z,22.42
2023-04-16T06:58:09.392Z,22.42
2023-04-16T06:59:09.486Z,22.38
2023-04-16T07:00:09.398Z,22.33
2023-04-16T07:01:09.408Z,22.34
2023-04-16T07:02:09.412Z,22.39
2023-04-16T07:03:09.567Z,22.38
2023-04-16T07:04:09.435Z,22.41
2023-04-16T07:05:09.392Z,22.38
2023-04-16T07:06:09.353Z,22.42
2023-04-16T07:07:09.355Z,22.51
2023-04-16T07:08:09.365Z,22.42
2023-04-16T07:10:16.303Z,22.46
2023-04-16T07:10:16.318Z,22.46
2023-04-16T07:11:16.290Z,22.45
2023-04-16T07:12:16.330Z,22.48
2023-04-16T07:13:16.291Z,22.49
2023-04-16T07:14:16.287Z,22.49
2023-04-16T07:15:16.294Z,22.48
2023-04-16T07:16:16.301Z,22.48
2023-04-16T07:17:16.266Z,22.55
2023-04-16T07:18:16.283Z,22.63
2023-04-16T07:19:16.281Z,22.60
2023-04-16T07:20:16.273Z,22.60
2023-04-16T07:21:16.285Z,22.59
2023-04-16T07:22:16.269Z,22.61
2023-04-16T07:23:16.282Z,22.64
2023-04-16T07:24:16.272Z,22.64
2023-04-16T07:25:16.226Z,22.67
2023-04-16T07:26:16.289Z,22.75
2023-04-16T07:27:16.248Z,22.75
2023-04-16T07:28:16.244Z,22.79
2023-04-16T07:29:16.252Z,22.71
2023-04-16T07:30:16.262Z,22.81
2023-04-16T07:31:16.268Z,22.82
2023-04-16T07:32:16.256Z,22.79
2023-04-16T07:33:16.221Z,22.78
2023-04-16T07:34:16.220Z,22.82
2023-04-16T07:35:16.244Z,22.79
2023-04-16T07:36:16.228Z,22.88
2023-04-16T07:37:16.192Z,22.89
2023-04-16T07:38:16.237Z,22.82
2023-04-16T07:39:16.205Z,22.86
2023-04-16T07:40:16.213Z,22.94
2023-04-16T07:41:16.205Z,22.88
2023-04-16T07:42:16.220Z,22.89
2023-04-16T07:43:16.183Z,22.96
2023-04-16T07:44:16.182Z,23.00
2023-04-16T07:45:16.186Z,23.03
2023-04-16T07:46:16.271Z,23.01
2023-04-16T07:47:16.180Z,23.04
2023-04-16T07:48:16.178Z,23.10
2023-04-16T07:49:16.209Z,23.12
2023-04-16T07:50:16.161Z,23.03
2023-04-16T07:51:16.172Z,23.10
2023-04-16T07:52:16.170Z,23.10
2023-04-16T07:53:16.181Z,23.14
2023-04-16T07:54:16.164Z,23.12
2023-04-16T07:55:16.162Z,23.18
2023-04-16T07:56:16.160Z,23.16
2023-04-16T07:57:16.148Z,23.18
2023-04-16T07:58:16.157Z,23.18
2023-04-16T07:59:22.772Z,23.16
2023-04-16T08:00:16.151Z,23.15
2023-04-16T08:01:16.147Z,23.25
2023-04-16T08:02:16.311Z,23.21
2023-04-16T08:03:16.392Z,23.18
2023-04-16T08:04:16.331Z,23.28
2023-04-16T08:05:16.163Z,23.29
2023-04-16T08:06:16.226Z,23.28
2023-04-16T08:07:16.137Z,23.19
2023-04-16T08:08:16.136Z,23.22
2023-04-16T08:09:16.128Z,23.24
2023-04-16T08:11:16.111Z,23.34
2023-04-16T08:12:16.122Z,23.34
2023-04-16T08:13:16.122Z,23.38
2023-04-16T08:14:18.019Z,23.34
2023-04-16T08:15:16.132Z,23.41
2023-04-16T08:16:16.166Z,23.38
2023-04-16T08:17:16.104Z,23.37
2023-04-16T08:18:16.098Z,23.40
2023-04-16T08:19:16.105Z,23.37
2023-04-16T08:20:19.058Z,23.40
2023-04-16T08:21:16.098Z,23.38
2023-04-16T08:22:16.110Z,23.35
2023-04-16T08:23:16.099Z,23.41
2023-04-16T08:24:16.122Z,23.44
2023-04-16T08:25:16.113Z,23.40
2023-04-16T08:26:16.088Z,23.41
2023-04-16T08:27:19.753Z,23.42
2023-04-16T08:28:16.075Z,23.42
2023-04-16T08:29:16.083Z,23.47
2023-04-16T08:30:16.108Z,23.41
2023-04-16T08:31:16.109Z,23.50
2023-04-16T08:32:16.074Z,23.42
2023-04-16T08:33:16.115Z,23.45
2023-04-16T08:34:16.074Z,23.48
2023-04-16T08:35:16.083Z,23.47
2023-04-16T08:36:16.088Z,23.48
2023-04-16T08:37:16.073Z,23.52
2023-04-16T08:38:16.094Z,23.56
2023-04-16T08:39:16.051Z,23.55
2023-04-16T08:40:16.102Z,23.59
2023-04-16T08:41:16.061Z,23.45
2023-04-16T08:42:16.062Z,23.45
2023-04-16T08:43:16.049Z,23.50
2023-04-16T08:44:16.041Z,23.53
2023-04-16T08:45:16.043Z,23.45
2023-04-16T08:46:16.133Z,23.52
2023-04-16T08:47:16.036Z,23.55
2023-04-16T08:48:16.035Z,23.53
2023-04-16T08:49:16.044Z,23.50
2023-04-16T08:50:16.068Z,23.53
2023-04-16T08:51:16.044Z,23.55
2023-04-16T08:52:16.014Z,23.59
2023-04-16T08:53:16.016Z,23.57
2023-04-16T08:54:16.031Z,23.48
2023-04-16T08:55:16.028Z,23.57
2023-04-16T08:56:16.014Z,23.57
2023-04-16T08:57:16.026Z,23.50
2023-04-16T08:58:16.008Z,23.50
2023-04-16T08:59:16.055Z,23.52
2023-04-16T09:00:16.035Z,23.50
2023-04-16T09:01:16.032Z,23.47
2023-04-16T09:02:16.151Z,23.59
2023-04-16T09:03:16.178Z,23.53
2023-04-16T09:04:16.271Z,23.53
2023-04-16T09:05:16.003Z,23.59
2023-04-16T09:06:16.005Z,23.55
2023-04-16T09:07:15.993Z,23.55
2023-04-16T09:08:16.006Z,23.59
2023-04-16T09:09:16.016Z,23.55
2023-04-16T09:10:15.995Z,23.50
2023-04-16T09:11:16.031Z,23.59
2023-04-16T09:12:15.993Z,23.52
2023-04-16T09:13:15.984Z,23.55
2023-04-16T09:14:16.048Z,23.59
2023-04-16T09:15:16.022Z,23.59
2023-04-16T09:16:16.033Z,23.56
2023-04-16T09:17:16.013Z,23.57
2023-04-16T09:18:15.986Z,23.55
2023-04-16T09:19:15.977Z,23.57
2023-04-16T09:20:15.960Z,23.60
2023-04-16T09:21:15.969Z,23.56
2023-04-16T09:22:15.957Z,23.57
2023-04-16T09:23:15.965Z,23.60
2023-04-16T09:24:15.971Z,23.52
2023-04-16T09:25:16.026Z,23.53
2023-04-16T09:26:15.947Z,23.56
2023-04-16T09:27:15.991Z,23.60
2023-04-16T09:28:15.946Z,23.53
2023-04-16T09:29:15.942Z,23.60
2023-04-16T09:30:15.966Z,23.56
2023-04-16T09:31:16.143Z,23.52
2023-04-16T09:32:16.059Z,23.52
2023-04-16T09:33:15.980Z,23.55
2023-04-16T09:34:15.965Z,23.57
2023-04-16T09:35:15.946Z,23.57
2023-04-16T09:36:15.973Z,23.59
2023-04-16T09:37:15.939Z,23.67
2023-04-16T09:38:15.944Z,23.62
2023-04-16T09:39:15.922Z,23.71
2023-04-16T09:40:15.943Z,23.67
2023-04-16T09:41:15.951Z,23.62
2023-04-16T09:42:15.938Z,23.64
2023-04-16T09:43:15.934Z,23.66
2023-04-16T09:44:15.940Z,23.66
2023-04-16T09:45:15.912Z,23.72
2023-04-16T09:46:16.027Z,23.72
2023-04-16T09:47:15.919Z,23.66
2023-04-16T09:48:15.911Z,23.72
2023-04-16T09:49:15.968Z,23.66
2023-04-16T09:50:18.009Z,23.72
2023-04-16T09:51:15.929Z,23.70
2023-04-16T09:52:15.903Z,23.64
2023-04-16T09:53:15.900Z,23.64
2023-04-16T09:54:15.905Z,23.75
2023-04-16T09:55:15.907Z,23.70
2023-04-16T09:56:15.887Z,23.77
2023-04-16T09:57:15.917Z,23.77
2023-04-16T09:58:15.912Z,23.89
2023-04-16T09:59:15.917Z,23.79
2023-04-16T10:00:15.900Z,23.79
2023-04-16T10:01:15.918Z,23.89
2023-04-16T10:02:16.573Z,23.85
2023-04-16T10:13:33.936Z,23.72
2023-04-16T10:14:33.860Z,23.70
2023-04-16T10:15:33.859Z,23.62
2023-04-16T10:16:33.899Z,23.56
2023-04-16T10:17:33.885Z,23.64
2023-04-16T10:18:33.837Z,23.59
2023-04-16T10:19:33.835Z,23.56
2023-04-16T10:20:33.838Z,23.50
2023-04-16T10:21:34.409Z,23.47
2023-04-16T10:22:33.850Z,23.44
2023-04-16T10:23:33.838Z,23.48
2023-04-16T10:24:33.859Z,23.45
2023-04-16T10:25:33.837Z,23.42
2023-04-16T10:26:33.846Z,23.44
2023-04-16T10:27:33.813Z,23.37
2023-04-16T10:28:33.821Z,23.38
2023-04-16T10:29:33.816Z,23.42
2023-04-16T10:30:33.932Z,23.41
2023-04-16T10:31:33.837Z,23.37
2023-04-16T10:32:33.897Z,23.37
2023-04-16T10:33:33.818Z,23.38
2023-04-16T10:34:33.789Z,23.37
2023-04-16T10:35:33.785Z,23.37
2023-04-16T10:36:33.796Z,23.37
2023-04-16T10:37:33.781Z,23.42
2023-04-16T10:38:33.779Z,23.40
2023-04-16T10:39:33.787Z,23.38
2023-04-16T10:40:33.792Z,23.40
2023-04-16T10:41:33.778Z,23.41
2023-04-16T10:42:33.783Z,23.45
2023-04-16T10:43:33.809Z,23.40
2023-04-16T10:44:33.812Z,23.41
2023-04-16T10:45:33.789Z,23.35
2023-04-16T10:46:33.828Z,23.42
2023-04-16T10:47:33.804Z,23.38
2023-04-16T10:48:46.531Z,23.38
2023-04-16T10:49:33.774Z,23.41
2023-04-16T10:50:33.754Z,23.35
2023-04-16T10:51:33.797Z,23.44
2023-04-16T10:52:33.742Z,23.40
2023-04-16T10:53:33.750Z,23.40
2023-04-16T10:54:33.813Z,23.40
2023-04-16T10:55:33.747Z,23.40
2023-04-16T10:56:33.747Z,23.44
2023-04-16T10:57:33.729Z,23.48
2023-04-16T10:58:33.761Z,23.44
2023-04-16T10:59:33.735Z,23.48
2023-04-16T11:00:33.746Z,23.47
2023-04-16T11:01:33.998Z,23.47
2023-04-16T11:02:33.890Z,23.48
2023-04-16T11:03:33.869Z,23.53
2023-04-16T11:04:33.848Z,23.60
2023-04-16T11:05:33.726Z,23.59
2023-04-16T11:06:33.758Z,23.59
2023-04-16T11:07:33.717Z,23.59
2023-04-16T11:08:38.805Z,23.52
2023-04-16T11:09:33.720Z,23.56
2023-04-16T11:10:33.714Z,23.59
2023-04-16T11:11:34.508Z,23.56
2023-04-16T11:12:33.693Z,23.60
2023-04-16T11:13:33.722Z,23.53
2023-04-16T11:14:33.704Z,23.53
2023-04-16T11:15:33.712Z,23.52
2023-04-16T11:16:33.753Z,23.52
2023-04-16T11:17:33.775Z,23.55
2023-04-16T11:18:33.681Z,23.53
2023-04-16T11:19:33.677Z,23.50
2023-04-16T11:20:33.674Z,23.48
2023-04-16T11:21:33.686Z,23.53
2023-04-16T11:22:33.697Z,23.48
2023-04-16T11:23:33.682Z,23.52
2023-04-16T11:24:33.700Z,23.52
2023-04-16T11:25:33.689Z,23.47
2023-04-16T11:26:33.669Z,23.52
2023-04-16T11:27:33.684Z,23.57
2023-04-16T11:28:33.658Z,23.48
2023-04-16T11:29:33.714Z,23.47
2023-04-16T11:30:33.663Z,23.59
2023-04-16T11:31:33.720Z,23.47
2023-04-16T11:32:33.678Z,23.47
2023-04-16T11:33:33.686Z,23.48
2023-04-16T11:34:33.698Z,23.50
2023-04-16T11:35:33.675Z,23.50
2023-04-16T11:36:33.660Z,23.48
2023-04-16T11:37:33.650Z,23.56
2023-04-16T11:38:33.647Z,23.55
2023-04-16T11:39:33.659Z,23.55
2023-04-16T11:40:33.655Z,23.53
2023-04-16T11:41:33.649Z,23.57
2023-04-16T11:42:33.702Z,23.60
2023-04-16T11:43:33.627Z,23.62
2023-04-16T11:44:33.674Z,23.59
2023-04-16T11:45:33.657Z,23.62
2023-04-16T11:46:33.684Z,23.74
2023-04-16T11:47:33.726Z,23.71
2023-04-16T11:48:33.621Z,23.70
2023-04-16T11:49:33.640Z,23.71
2023-04-16T11:50:33.646Z,23.75
2023-04-16T11:51:33.614Z,23.77
2023-04-16T11:52:33.617Z,23.77
2023-04-16T11:53:33.610Z,23.75
2023-04-16T11:54:33.637Z,23.79
2023-04-16T11:55:33.621Z,23.79
2023-04-16T11:56:33.616Z,23.84
2023-04-16T11:57:33.602Z,23.81
2023-04-16T11:58:33.625Z,23.82
2023-04-16T11:59:33.606Z,23.81
2023-04-16T12:00:33.605Z,23.81
2023-04-16T12:01:33.623Z,23.75
2023-04-16T12:02:33.727Z,23.90
2023-04-16T12:03:33.804Z,23.92
2023-04-16T12:04:33.681Z,23.87
2023-04-16T12:05:33.592Z,24.03
2023-04-16T12:06:33.587Z,24.12
2023-04-16T12:07:33.599Z,24.09
2023-04-16T12:08:33.587Z,24.07
2023-04-16T12:09:33.578Z,24.12
2023-04-16T12:10:33.580Z,24.14
2023-04-16T12:11:33.583Z,24.19
2023-04-16T12:12:33.591Z,24.22
2023-04-16T12:13:33.604Z,24.15
2023-04-16T12:14:33.590Z,24.26
2023-04-16T12:15:33.610Z,24.32
2023-04-16T12:16:35.323Z,24.29
2023-04-16T12:17:33.721Z,24.34
2023-04-16T12:18:33.597Z,24.40
2023-04-16T12:19:33.579Z,24.48
2023-04-16T12:20:33.555Z,24.44
2023-04-16T12:21:33.570Z,24.49
2023-04-16T12:22:35.969Z,24.48
2023-04-16T12:23:33.682Z,24.42
2023-04-16T12:24:33.608Z,24.44
2023-04-16T12:25:33.573Z,24.48
2023-04-16T12:26:33.582Z,24.44
2023-04-16T12:27:33.598Z,24.45
2023-04-16T12:28:33.550Z,24.51
2023-04-16T12:29:33.571Z,24.45
2023-04-16T12:30:33.571Z,24.56
2023-04-16T12:31:33.586Z,24.54
2023-04-16T12:32:33.588Z,24.54
2023-04-16T12:33:33.558Z,24.48
2023-04-16T12:34:48.851Z,24.58
2023-04-16T12:35:33.559Z,24.54
2023-04-16T12:36:33.574Z,24.63
2023-04-16T12:37:33.570Z,24.58
2023-04-16T12:38:33.542Z,24.46
2023-04-16T12:39:33.544Z,24.48
2023-04-16T12:40:33.570Z,24.59
2023-04-16T12:41:33.533Z,24.54
2023-04-16T12:42:33.535Z,24.56
2023-04-16T12:43:33.536Z,24.59
2023-04-16T12:44:33.555Z,24.59
2023-04-16T12:45:33.539Z,24.64
2023-04-16T12:46:33.641Z,24.55
2023-04-16T12:47:33.564Z,24.54
2023-04-16T12:48:33.522Z,24.55
2023-04-16T12:49:33.526Z,24.64
2023-04-16T12:50:33.559Z,24.63
2023-04-16T12:51:33.538Z,24.61
2023-04-16T12:52:33.528Z,24.59
2023-04-16T12:53:33.534Z,24.61
2023-04-16T12:54:33.536Z,24.64
2023-04-16T12:55:33.551Z,24.74
2023-04-16T12:56:33.512Z,24.74
2023-04-16T12:57:33.520Z,24.77
2023-04-16T12:58:33.517Z,24.70
2023-04-16T12:59:33.520Z,24.74
2023-04-16T13:00:33.500Z,24.77
2023-04-16T13:01:33.553Z,24.85
2023-04-16T13:02:33.833Z,24.83
2023-04-16T13:03:33.647Z,24.85
2023-04-16T13:04:33.593Z,24.94
2023-04-16T13:05:33.501Z,24.96
2023-04-16T13:06:33.499Z,24.94
2023-04-16T13:07:33.576Z,24.89
2023-04-16T13:08:33.516Z,24.94
2023-04-16T13:09:33.517Z,24.94
2023-04-16T13:10:33.532Z,24.96
2023-04-16T13:11:33.522Z,24.93
2023-04-16T13:12:33.526Z,25.02
2023-04-16T13:13:33.522Z,24.94
2023-04-16T13:14:33.496Z,25.01
2023-04-16T13:15:33.546Z,24.94
2023-04-16T13:16:33.548Z,24.89
2023-04-16T13:17:33.573Z,24.93
2023-04-16T13:18:33.513Z,24.92
2023-04-16T13:19:33.511Z,24.96
2023-04-16T13:20:33.519Z,24.96
2023-04-16T13:21:33.486Z,25.00
2023-04-16T13:22:33.494Z,25.00
2023-04-16T13:23:33.506Z,24.96
2023-04-16T13:24:33.503Z,25.02
2023-04-16T13:25:33.539Z,25.01
2023-04-16T13:26:33.491Z,25.01
2023-04-16T13:27:33.516Z,24.96
2023-04-16T13:28:33.497Z,25.00
2023-04-16T13:29:33.495Z,24.97
2023-04-16T13:30:33.489Z,25.00
2023-04-16T13:31:33.582Z,24.87
2023-04-16T13:32:33.539Z,25.01
2023-04-16T13:33:33.488Z,25.00
2023-04-16T13:34:33.530Z,25.01
2023-04-16T13:35:33.471Z,25.01
2023-04-16T13:36:33.503Z,25.01
2023-04-16T13:37:33.488Z,25.00
2023-04-16T13:38:33.502Z,25.01
2023-04-16T13:39:33.485Z,25.01
2023-04-16T13:40:33.473Z,25.02
2023-04-16T13:41:33.480Z,25.05
2023-04-16T13:42:33.491Z,25.00
2023-04-16T13:43:33.522Z,25.01
2023-04-16T13:44:33.477Z,25.02
2023-04-16T13:45:33.463Z,25.01
2023-04-16T13:46:33.516Z,25.04
2023-04-16T13:47:33.528Z,25.01
2023-04-16T13:48:33.499Z,24.96
2023-04-16T13:49:35.614Z,25.00
2023-04-16T13:50:33.465Z,24.94
2023-04-16T13:51:33.471Z,24.93
2023-04-16T13:52:33.480Z,24.89
2023-04-16T13:53:33.477Z,24.90
2023-04-16T13:54:33.500Z,24.97
2023-04-16T13:55:33.478Z,24.90
2023-04-16T13:56:33.482Z,24.94
2023-04-16T13:57:33.476Z,24.94
2023-04-16T13:58:33.457Z,24.93
2023-04-16T13:59:33.469Z,24.96
2023-04-16T14:00:33.474Z,24.92
2023-04-16T14:01:33.487Z,24.92
2023-04-16T14:02:33.604Z,24.87
2023-04-16T14:03:33.519Z,24.86
2023-04-16T14:04:33.488Z,24.83
2023-04-16T14:05:33.462Z,24.78
2023-04-16T14:06:33.455Z,24.70
2023-04-16T14:07:33.465Z,24.74
2023-04-16T14:08:33.440Z,24.83
2023-04-16T14:09:33.467Z,24.89
2023-04-16T14:10:33.444Z,24.93
2023-04-16T14:11:33.445Z,24.96
2023-04-16T14:12:33.466Z,24.94
2023-04-16T14:13:33.444Z,24.92
2023-04-16T14:14:33.512Z,24.97
2023-04-16T14:15:33.442Z,24.94
2023-04-16T14:16:33.452Z,24.90
2023-04-16T14:17:33.488Z,24.86
2023-04-16T14:18:33.450Z,24.85
2023-04-16T14:19:33.483Z,24.89
2023-04-16T14:20:33.528Z,24.86
2023-04-16T14:21:33.423Z,24.89
2023-04-16T14:22:33.429Z,24.87
2023-04-16T14:23:33.498Z,24.86
2023-04-16T14:24:33.441Z,24.82
2023-04-16T14:25:33.454Z,24.78
2023-04-16T14:26:33.421Z,24.74
2023-04-16T14:27:33.430Z,24.83
2023-04-16T14:28:33.436Z,24.78
2023-04-16T14:29:33.480Z,24.78
2023-04-16T14:30:33.436Z,24.83
2023-04-16T14:31:33.454Z,24.66
2023-04-16T14:32:33.507Z,24.75
2023-04-16T14:33:33.454Z,24.66
2023-04-16T14:34:33.446Z,24.66
2023-04-16T14:35:33.404Z,24.55
2023-04-16T14:36:33.423Z,24.58
2023-04-16T14:37:33.451Z,24.45
2023-04-16T14:38:33.402Z,24.46
2023-04-16T14:39:33.537Z,24.48
2023-04-16T14:42:05.943Z,24.39
2023-04-16T14:43:05.930Z,24.36
2023-04-16T14:44:05.945Z,24.32
2023-04-16T14:45:05.944Z,24.30
2023-04-16T14:46:05.965Z,24.26
2023-04-16T14:47:05.931Z,24.26
2023-04-16T14:48:05.949Z,24.30
2023-04-16T14:49:05.929Z,24.26
2023-04-16T14:50:05.991Z,24.26
2023-04-16T14:51:05.914Z,24.14
2023-04-16T14:52:05.954Z,24.18
2023-04-16T14:53:05.984Z,24.17
2023-04-16T14:54:05.923Z,24.09
2023-04-16T14:55:05.928Z,24.11
2023-04-16T14:56:05.970Z,24.07
2023-04-16T14:57:05.940Z,24.03
2023-04-16T14:58:05.935Z,24.00
2023-04-16T14:59:05.909Z,23.94
2023-04-16T15:00:05.916Z,23.97
2023-04-16T15:01:05.955Z,23.87
2023-04-16T15:02:06.039Z,23.93
2023-04-16T15:03:06.306Z,23.87
2023-04-16T15:04:05.980Z,23.85
2023-04-16T15:05:05.925Z,23.84
2023-04-16T15:06:05.983Z,23.77
2023-04-16T15:07:05.894Z,23.78
2023-04-16T15:08:05.902Z,23.74
2023-04-16T15:09:05.897Z,23.71
2023-04-16T15:10:05.902Z,23.72
2023-04-16T15:11:05.881Z,23.71
2023-04-16T15:12:05.903Z,23.71
2023-04-16T15:13:05.900Z,23.66
2023-04-16T15:14:05.939Z,23.60
2023-04-16T15:15:05.883Z,23.59
2023-04-16T15:16:05.878Z,23.60
2023-04-16T15:17:06.035Z,23.59
2023-04-16T15:18:05.944Z,23.62
2023-04-16T15:19:05.867Z,23.56
2023-04-16T15:20:05.870Z,23.55
2023-04-16T15:21:05.913Z,23.59
2023-04-16T15:22:05.888Z,23.55
2023-04-16T15:23:05.863Z,23.60
2023-04-16T15:24:05.882Z,23.56
2023-04-16T15:25:05.873Z,23.59
2023-04-16T15:26:05.862Z,23.56
2023-04-16T15:27:05.848Z,23.57
2023-04-16T15:28:05.846Z,23.53
2023-04-16T15:29:05.849Z,23.53
2023-04-16T15:30:05.859Z,23.52
2023-04-16T15:31:05.907Z,23.48
2023-04-16T15:32:05.837Z,23.55
2023-04-16T15:33:05.895Z,23.48
2023-04-16T15:34:05.827Z,23.45
2023-04-16T15:35:05.867Z,23.42
2023-04-16T15:36:05.839Z,23.37
2023-04-16T15:37:05.824Z,23.47
2023-04-16T15:38:05.832Z,23.45
2023-04-16T15:39:05.826Z,23.41
2023-04-16T15:40:05.814Z,23.37
2023-04-16T15:41:05.824Z,23.45
2023-04-16T15:42:07.159Z,23.37
2023-04-16T15:43:05.836Z,23.32
2023-04-16T15:44:05.850Z,23.38
2023-04-16T15:45:05.819Z,23.22
2023-04-16T15:46:05.886Z,23.29
2023-04-16T15:47:05.811Z,23.22
2023-04-16T15:48:05.850Z,23.28
2023-04-16T15:49:05.847Z,23.22
2023-04-16T15:50:05.797Z,23.26
2023-04-16T15:51:05.815Z,23.24
2023-04-16T15:52:05.802Z,23.26
2023-04-16T15:53:05.803Z,23.22
2023-04-16T15:54:05.851Z,23.26
2023-04-16T15:55:05.806Z,23.15
2023-04-16T15:56:05.797Z,23.14
2023-04-16T15:57:05.808Z,23.12
2023-04-16T15:58:05.780Z,23.19
2023-04-16T15:59:05.783Z,23.09
2023-04-16T16:00:07.363Z,23.14
2023-04-16T16:01:05.775Z,23.10
2023-04-16T16:12:43.982Z,22.79
2023-04-16T16:13:44.000Z,22.85
2023-04-16T16:14:43.951Z,22.76
2023-04-16T16:15:44.007Z,22.79
2023-04-16T16:16:43.949Z,22.84
2023-04-16T16:17:43.989Z,22.82
2023-04-16T16:18:43.975Z,22.76
2023-04-16T16:19:45.845Z,22.75
2023-04-16T16:20:43.922Z,22.71
2023-04-16T16:21:43.928Z,22.67
2023-04-16T16:22:43.900Z,22.63
2023-04-16T16:23:43.898Z,22.59
2023-04-16T16:24:43.940Z,22.66
2023-04-16T16:25:43.895Z,22.55
2023-04-16T16:26:43.906Z,22.57
2023-04-16T16:27:43.907Z,22.61
2023-04-16T16:28:43.930Z,22.61
2023-04-16T16:29:43.880Z,22.64
2023-04-16T16:30:43.912Z,22.64
2023-04-16T16:31:43.900Z,22.57
2023-04-16T16:32:43.878Z,22.45
2023-04-16T16:33:43.868Z,22.48
2023-04-16T16:34:43.901Z,22.52
2023-04-16T16:35:43.880Z,22.45
2023-04-16T16:36:43.889Z,22.48
2023-04-16T16:37:43.875Z,22.48
2023-04-16T16:38:43.872Z,22.45
2023-04-16T16:39:43.863Z,22.45
2023-04-16T16:40:43.889Z,22.44
2023-04-16T16:41:43.854Z,22.46
2023-04-16T16:42:43.934Z,22.44
2023-04-16T16:43:43.854Z,22.44
2023-04-16T16:44:43.844Z,22.46
2023-04-16T16:45:43.832Z,22.39
2023-04-16T16:46:43.853Z,22.38
2023-04-16T16:47:43.959Z,22.41
2023-04-16T16:48:43.845Z,22.38
2023-04-16T16:49:43.843Z,22.41
2023-04-16T16:50:43.911Z,22.42
2023-04-16T16:51:43.813Z,22.39
2023-04-16T16:52:43.842Z,22.30
2023-04-16T16:53:43.822Z,22.36
2023-04-16T16:54:43.798Z,22.33
2023-04-16T16:55:43.788Z,22.34
2023-04-16T16:56:43.791Z,22.34
2023-04-16T16:57:43.809Z,22.31
2023-04-16T16:58:43.809Z,22.24
2023-04-16T16:59:43.820Z,22.27
2023-04-16T17:00:43.895Z,22.29
2023-04-16T17:01:43.775Z,22.30
2023-04-16T17:02:44.149Z,22.18
2023-04-16T17:03:43.930Z,22.29
2023-04-16T17:04:43.836Z,22.27
2023-04-16T17:05:43.822Z,22.27
2023-04-16T17:06:43.801Z,22.23
2023-04-16T17:07:43.800Z,22.29
2023-04-16T17:08:43.763Z,22.27
2023-04-16T17:09:43.796Z,22.27
2023-04-16T17:10:43.739Z,22.11
2023-04-16T17:11:43.734Z,22.22
2023-04-16T17:12:43.770Z,22.20
2023-04-16T17:13:43.763Z,22.12
2023-04-16T17:14:43.754Z,22.26